createdAt,value
2022-08-26T00:02:01.509Z,99194.56
2022-08-26T00:04:04.217Z,99190.41
2022-08-26T00:06:07.832Z,99187.56
2022-08-26T00:08:13.671Z,99194.28
2022-08-26T00:10:16.562Z,99199.78
2022-08-26T00:12:19.815Z,99197.56
2022-08-26T00:14:33.632Z,99191.59
2022-08-26T00:16:36.047Z,99192.28
2022-08-26T00:18:40.802Z,99189.53
2022-08-26T00:20:42.969Z,99190.25
2022-08-26T00:22:44.975Z,99192.28
2022-08-26T00:24:47.893Z,99188.50
2022-08-26T00:26:51.625Z,99189.22
2022-08-26T00:28:54.401Z,99188.34
2022-08-26T00:30:56.533Z,99179.25
2022-08-26T00:32:59.514Z,99186.47
2022-08-26T00:35:02.095Z,99180.44
2022-08-26T00:37:04.333Z,99191.59
2022-08-26T00:39:11.090Z,99182.09
2022-08-26T00:41:13.108Z,99178.97
2022-08-26T00:43:16.213Z,99183.06
2022-08-26T00:45:18.754Z,99185.00
2022-08-26T00:47:31.082Z,99180.75
2022-08-26T00:49:43.999Z,99187.63
2022-08-26T00:51:55.613Z,99179.31
2022-08-26T00:54:11.295Z,99192.09
2022-08-26T00:56:22.665Z,99183.25
2022-08-26T00:58:26.861Z,99178.59
2022-08-26T01:00:31.939Z,99175.63
2022-08-26T01:02:34.183Z,99173.44
2022-08-26T01:04:41.323Z,99179.41
2022-08-26T01:06:46.883Z,99183.19
2022-08-26T01:08:49.571Z,99180.44
2022-08-26T01:10:55.785Z,99178.94
2022-08-26T01:13:06.200Z,99185.75
2022-08-26T01:15:13.890Z,99184.38
2022-08-26T01:17:17.801Z,99184.72
2022-08-26T01:19:25.252Z,99179.88
2022-08-26T01:21:34.200Z,99184.19
2022-08-26T01:23:39.620Z,99181.00
2022-08-26T01:25:49.394Z,99179.75
2022-08-26T01:27:52.650Z,99183.28
2022-08-26T01:29:55.240Z,99187.97
2022-08-26T01:31:58.391Z,99182.81
2022-08-26T01:34:03.747Z,99187.59
2022-08-26T01:36:07.663Z,99175.53
2022-08-26T01:38:12.851Z,99187.06
2022-08-26T01:40:20.727Z,99182.97
2022-08-26T01:42:24.961Z,99180.31
2022-08-26T01:44:30.795Z,99178.91
2022-08-26T01:46:34.084Z,99174.00
2022-08-26T01:48:40.748Z,99172.38
2022-08-26T01:50:45.195Z,99182.81
2022-08-26T01:52:54.202Z,99178.91
2022-08-26T01:54:59.182Z,99177.50
2022-08-26T01:57:04.000Z,99175.69
2022-08-26T01:59:09.441Z,99176.69
2022-08-26T02:01:13.129Z,99178.72
2022-08-26T02:03:17.364Z,99182.34
2022-08-26T02:05:21.812Z,99180.16
2022-08-26T02:07:26.855Z,99171.22
2022-08-26T02:09:29.320Z,99172.25
2022-08-26T02:11:33.974Z,99171.22
2022-08-26T02:13:43.864Z,99174.97
2022-08-26T02:15:46.867Z,99178.28
2022-08-26T02:17:49.387Z,99171.91
2022-08-26T02:19:57.724Z,99174.13
2022-08-26T02:22:03.649Z,99171.22
2022-08-26T02:24:12.450Z,99171.13
2022-08-26T02:26:19.188Z,99169.56
2022-08-26T02:28:21.977Z,99165.31
2022-08-26T02:30:32.334Z,99165.63
2022-08-26T02:32:34.394Z,99167.59
2022-08-26T02:34:37.718Z,99166.56
2022-08-26T02:36:40.718Z,99162.13
2022-08-26T02:38:43.152Z,99169.81
2022-08-26T02:40:45.390Z,99164.88
2022-08-26T02:42:52.977Z,99156.28
2022-08-26T02:44:58.317Z,99163.22
2022-08-26T02:47:01.214Z,99158.13
2022-08-26T02:49:03.144Z,99163.44
2022-08-26T02:51:05.333Z,99171.13
2022-08-26T02:53:08.173Z,99163.59
2022-08-26T02:55:10.725Z,99164.69
2022-08-26T02:57:12.819Z,99166.81
2022-08-26T02:59:15.514Z,99165.19
2022-08-26T03:01:34.468Z,99171.13
2022-08-26T03:03:36.660Z,99171.84
2022-08-26T03:05:38.558Z,99170.81
2022-08-26T03:07:42.303Z,99177.00
2022-08-26T03:09:44.344Z,99171.41
2022-08-26T03:11:47.405Z,99171.63
2022-08-26T03:13:50.221Z,99172.41
2022-08-26T03:15:52.354Z,99169.38
2022-08-26T03:17:55.102Z,99177.44
2022-08-26T03:19:59.722Z,99173.53
2022-08-26T03:22:04.038Z,99169.91
2022-08-26T03:24:06.409Z,99172.25
2022-08-26T03:26:10.057Z,99171.41
2022-08-26T03:28:13.201Z,99169.66
2022-08-26T03:30:34.903Z,99171.72
2022-08-26T03:32:37.631Z,99175.63
2022-08-26T03:34:39.884Z,99172.94
2022-08-26T03:36:42.287Z,99180.31
2022-08-26T03:38:45.145Z,99180.00
2022-08-26T03:40:48.435Z,99177.66
2022-08-26T03:42:53.474Z,99167.09
2022-08-26T03:44:55.610Z,99168.22
2022-08-26T03:46:58.092Z,99177.84
2022-08-26T03:49:02.506Z,99176.13
2022-08-26T03:51:11.763Z,99184.25
2022-08-26T03:53:13.803Z,99180.94
2022-08-26T03:55:17.722Z,99179.47
2022-08-26T03:57:19.878Z,99185.84
2022-08-26T03:59:22.279Z,99173.97
2022-08-26T04:01:25.169Z,99178.91
2022-08-26T04:03:46.443Z,99184.41
2022-08-26T04:05:52.435Z,99179.38
2022-08-26T04:07:54.823Z,99182.56
2022-08-26T04:09:58.414Z,99182.44
2022-08-26T04:12:00.645Z,99190.38
2022-08-26T04:14:06.650Z,99184.91
2022-08-26T04:16:09.365Z,99189.69
2022-08-26T04:18:12.434Z,99185.63
2022-08-26T04:20:16.184Z,99182.28
2022-08-26T04:22:24.016Z,99183.44
2022-08-26T04:24:28.156Z,99179.28
2022-08-26T04:26:37.091Z,99173.47
2022-08-26T04:28:42.128Z,99182.28
2022-08-26T04:30:43.981Z,99178.66
2022-08-26T04:32:46.111Z,99184.44
2022-08-26T04:34:48.205Z,99184.63
2022-08-26T04:36:51.682Z,99180.53
2022-08-26T04:38:53.976Z,99185.16
2022-08-26T04:40:58.005Z,99182.56
2022-08-26T04:43:00.016Z,99184.31
2022-08-26T04:45:05.903Z,99184.13
2022-08-26T04:47:12.952Z,99182.38
2022-08-26T04:49:15.353Z,99181.53
2022-08-26T04:51:18.663Z,99176.72
2022-08-26T04:53:21.055Z,99177.38
2022-08-26T04:55:25.324Z,99183.69
2022-08-26T04:57:40.848Z,99180.78
2022-08-26T04:59:42.941Z,99182.09
2022-08-26T05:01:48.808Z,99179.13
2022-08-26T05:03:52.631Z,99179.38
2022-08-26T05:05:55.403Z,99180.22
2022-08-26T05:07:57.893Z,99180.06
2022-08-26T05:10:00.399Z,99177.88
2022-08-26T05:12:02.998Z,99174.97
2022-08-26T05:14:06.280Z,99182.13
2022-08-26T05:16:12.170Z,99176.50
2022-08-26T05:18:16.656Z,99169.75
2022-08-26T05:20:25.590Z,99178.88
2022-08-26T05:22:28.249Z,99168.50
2022-08-26T05:24:31.339Z,99172.44
2022-08-26T05:26:33.601Z,99173.06
2022-08-26T05:28:35.662Z,99178.47
2022-08-26T05:30:40.333Z,99168.56
2022-08-26T05:32:42.706Z,99172.34
2022-08-26T05:34:44.934Z,99175.06
2022-08-26T05:36:47.976Z,99180.31
2022-08-26T05:38:49.777Z,99179.88
2022-08-26T05:40:52.834Z,99180.56
2022-08-26T05:42:55.482Z,99188.53
2022-08-26T05:44:57.282Z,99184.75
2022-08-26T05:46:58.982Z,99187.00
2022-08-26T05:49:01.064Z,99183.28
2022-08-26T05:51:06.005Z,99187.13
2022-08-26T05:53:10.541Z,99186.56
2022-08-26T05:55:12.673Z,99186.47
2022-08-26T05:57:15.581Z,99186.03
2022-08-26T05:59:23.902Z,99182.38
2022-08-26T06:01:28.078Z,99184.28
2022-08-26T06:03:32.476Z,99189.78
2022-08-26T06:05:40.169Z,99178.69
2022-08-26T06:08:00.874Z,99184.09
2022-08-26T06:10:28.532Z,99181.38
2022-08-26T06:12:25.030Z,99182.22
2022-08-26T06:14:26.751Z,99180.50
2022-08-26T06:16:30.058Z,99178.97
2022-08-26T06:18:36.321Z,99183.31
2022-08-26T06:20:43.581Z,99179.66
2022-08-26T06:23:15.107Z,99187.22
2022-08-26T06:25:35.691Z,99183.56
2022-08-26T06:27:39.160Z,99185.75
2022-08-26T06:29:41.885Z,99185.22
2022-08-26T06:31:43.789Z,99186.78
2022-08-26T06:33:45.774Z,99190.19
2022-08-26T06:35:50.292Z,99192.56
2022-08-26T06:37:52.864Z,99189.25
2022-08-26T06:39:54.680Z,99183.84
2022-08-26T06:41:56.552Z,99188.66
2022-08-26T06:44:00.550Z,99181.84
2022-08-26T06:46:05.652Z,99184.09
2022-08-26T06:48:07.729Z,99189.75
2022-08-26T06:50:11.685Z,99189.56
2022-08-26T06:52:13.520Z,99188.50
2022-08-26T06:54:15.433Z,99204.00
2022-08-26T06:56:20.436Z,99195.88
2022-08-26T06:58:22.311Z,99198.09
2022-08-26T07:00:24.511Z,99192.22
2022-08-26T07:02:28.595Z,99189.59
2022-08-26T07:04:30.501Z,99182.25
2022-08-26T07:06:37.041Z,99180.00
2022-08-26T07:08:41.370Z,99178.84
2022-08-26T07:10:44.326Z,99183.38
2022-08-26T07:12:47.224Z,99180.56
2022-08-26T07:14:49.641Z,99180.09
2022-08-26T07:16:51.465Z,99177.75
2022-08-26T07:18:54.092Z,99180.34
2022-08-26T07:20:55.811Z,99165.75
2022-08-26T07:22:59.000Z,99169.75
2022-08-26T07:25:00.752Z,99166.50
2022-08-26T07:27:05.877Z,99167.50
2022-08-26T07:29:07.735Z,99167.91
2022-08-26T07:31:10.767Z,99168.06
2022-08-26T07:33:14.111Z,99171.41
2022-08-26T07:35:15.989Z,99167.66
2022-08-26T07:37:18.044Z,99158.38
2022-08-26T07:39:20.825Z,99160.41
2022-08-26T07:41:25.051Z,99163.63
2022-08-26T07:43:26.828Z,99165.63
2022-08-26T07:45:31.152Z,99160.81
2022-08-26T07:47:33.399Z,99154.03
2022-08-26T07:49:35.730Z,99157.47
2022-08-26T07:51:37.747Z,99157.66
2022-08-26T07:53:39.961Z,99157.34
2022-08-26T07:55:41.935Z,99152.91
2022-08-26T07:57:44.095Z,99153.66
2022-08-26T07:59:45.817Z,99147.06
2022-08-26T08:01:47.925Z,99139.28
2022-08-26T08:03:51.764Z,99144.56
2022-08-26T08:05:53.844Z,99144.94
2022-08-26T08:08:26.365Z,99137.13
2022-08-26T08:10:25.162Z,99143.34
2022-08-26T08:12:28.461Z,99140.81
2022-08-26T08:14:31.013Z,99133.00
2022-08-26T08:16:33.310Z,99136.63
2022-08-26T08:18:36.323Z,99130.22
2022-08-26T08:20:38.121Z,99133.09
2022-08-26T08:22:40.893Z,99135.78
2022-08-26T08:24:42.953Z,99124.94
2022-08-26T08:26:45.993Z,99136.97
2022-08-26T08:28:48.168Z,99127.69
2022-08-26T08:30:50.615Z,99128.19
2022-08-26T08:32:52.583Z,99126.16
2022-08-26T08:34:54.421Z,99129.28
2022-08-26T08:36:57.475Z,99130.06
2022-08-26T08:38:59.335Z,99128.47
2022-08-26T08:41:03.441Z,99127.00
2022-08-26T08:43:11.787Z,99130.88
2022-08-26T08:45:37.327Z,99128.22
2022-08-26T08:47:45.177Z,99115.84
2022-08-26T08:49:47.328Z,99109.47
2022-08-26T08:52:09.275Z,99112.72
2022-08-26T08:54:13.689Z,99115.53
2022-08-26T08:56:28.974Z,99113.63
2022-08-26T08:59:01.603Z,99106.81
2022-08-26T09:01:12.163Z,99101.47
2022-08-26T09:03:37.567Z,99100.00
2022-08-26T09:05:48.574Z,99105.34
2022-08-26T09:08:04.840Z,99105.16
2022-08-26T09:10:26.776Z,99097.44
2022-08-26T09:12:31.194Z,99098.94
2022-08-26T09:14:33.176Z,99086.53
2022-08-26T09:16:46.944Z,99092.94
2022-08-26T09:18:56.256Z,99086.69
2022-08-26T09:21:04.433Z,99083.06
2022-08-26T09:23:06.318Z,99078.09
2022-08-26T09:25:13.301Z,99074.03
2022-08-26T09:27:46.035Z,99071.88
2022-08-26T09:29:50.445Z,99072.97
2022-08-26T09:32:24.777Z,99076.78
2022-08-26T09:34:28.097Z,99069.72
2022-08-26T09:36:58.154Z,99071.00
2022-08-26T09:38:59.968Z,99066.97
2022-08-26T09:41:08.336Z,99068.69
2022-08-26T09:43:22.367Z,99062.91
2022-08-26T09:45:28.859Z,99061.16
2022-08-26T09:47:38.946Z,99061.75
2022-08-26T09:49:42.322Z,99053.97
2022-08-26T09:51:44.736Z,99057.84
2022-08-26T09:53:54.838Z,99059.09
2022-08-26T09:56:14.886Z,99056.28
2022-08-26T09:58:33.250Z,99052.84
2022-08-26T10:00:41.310Z,99053.47
2022-08-26T10:02:47.692Z,99054.31
2022-08-26T10:04:54.307Z,99045.09
2022-08-26T10:06:58.569Z,99047.63
2022-08-26T10:09:08.415Z,99051.09
2022-08-26T10:11:18.104Z,99051.38
2022-08-26T10:13:36.596Z,99052.41
2022-08-26T10:15:59.995Z,99048.84
2022-08-26T10:18:18.817Z,99053.50
2022-08-26T10:20:25.879Z,99045.81
2022-08-26T10:22:40.745Z,99047.50
2022-08-26T10:24:51.936Z,99054.97
2022-08-26T10:27:14.814Z,99045.91
2022-08-26T10:29:23.092Z,99042.69
2022-08-26T10:31:46.819Z,99036.91
2022-08-26T10:33:50.126Z,99038.78
2022-08-26T10:35:55.172Z,99041.72
2022-08-26T10:38:01.376Z,99038.84
2022-08-26T10:40:18.319Z,99036.13
2022-08-26T10:42:46.267Z,99039.75
2022-08-26T10:44:51.981Z,99034.75
2022-08-26T10:46:59.244Z,99035.19
2022-08-26T10:49:11.074Z,99032.72
2022-08-26T10:51:15.312Z,99032.31
2022-08-26T10:53:25.096Z,99028.66
2022-08-26T10:55:38.239Z,99023.19
2022-08-26T10:58:04.750Z,99029.19
2022-08-26T11:00:38.535Z,99024.88
2022-08-26T11:02:47.154Z,99020.31
2022-08-26T11:04:57.093Z,99027.22
2022-08-26T11:07:32.980Z,99018.28
2022-08-26T11:09:48.208Z,99017.16
2022-08-26T11:11:52.422Z,99021.13
2022-08-26T11:13:59.175Z,99017.63
2022-08-26T11:16:01.462Z,99016.75
2022-08-26T11:18:07.634Z,99013.25
2022-08-26T11:20:34.630Z,99009.78
2022-08-26T11:22:39.751Z,99005.59
2022-08-26T11:24:53.261Z,99002.09
2022-08-26T11:26:56.751Z,98999.16
2022-08-26T11:28:58.914Z,99002.97
2022-08-26T11:31:10.377Z,98999.38
2022-08-26T11:33:44.572Z,99009.63
2022-08-26T11:35:49.699Z,99000.00
2022-08-26T11:37:59.309Z,99006.38
2022-08-26T11:40:05.317Z,99010.16
2022-08-26T11:42:23.276Z,99000.69
2022-08-26T11:44:36.232Z,99003.22
2022-08-26T11:46:38.351Z,98996.66
2022-08-26T11:48:44.966Z,98989.88
2022-08-26T11:50:55.430Z,98995.72
2022-08-26T11:53:04.443Z,98991.91
2022-08-26T11:55:12.192Z,98980.78
2022-08-26T11:57:14.494Z,98983.97
2022-08-26T11:59:25.545Z,98983.78
2022-08-26T12:01:38.137Z,98989.63
2022-08-26T12:03:50.897Z,98981.00
2022-08-26T12:05:54.579Z,98975.84
2022-08-26T12:07:59.856Z,98980.25
2022-08-26T12:10:05.750Z,98978.59
2022-08-26T12:12:17.417Z,98969.38
2022-08-26T12:14:25.729Z,98976.72
2022-08-26T12:16:33.165Z,98974.88
2022-08-26T12:18:38.786Z,98985.19
2022-08-26T12:20:48.732Z,98978.28
2022-08-26T12:22:50.924Z,98977.00
2022-08-26T12:24:59.700Z,98975.84
2022-08-26T12:27:23.224Z,98975.75
2022-08-26T12:29:28.370Z,98974.88
2022-08-26T12:31:40.541Z,98970.34
2022-08-26T12:33:43.323Z,98968.50
2022-08-26T12:35:46.113Z,98967.34
2022-08-26T12:37:53.210Z,98969.88
2022-08-26T12:39:55.926Z,98969.50
2022-08-26T12:42:11.055Z,98965.38
2022-08-26T12:44:53.335Z,98956.88
2022-08-26T12:47:20.430Z,98962.09
2022-08-26T12:49:28.421Z,98962.47
2022-08-26T12:51:33.091Z,98959.66
2022-08-26T12:53:43.252Z,98959.81
2022-08-26T12:55:48.367Z,98962.19
2022-08-26T12:58:10.330Z,98959.59
2022-08-26T13:00:33.643Z,98957.19
2022-08-26T13:02:42.122Z,98954.56
2022-08-26T13:04:44.218Z,98957.97
2022-08-26T13:06:46.634Z,98951.59
2022-08-26T13:08:54.421Z,98958.28
2022-08-26T13:11:20.644Z,98957.59
2022-08-26T13:13:22.803Z,98956.88
2022-08-26T13:15:27.453Z,98953.19
2022-08-26T13:17:30.914Z,98948.44
2022-08-26T13:19:33.083Z,98947.66
2022-08-26T13:21:40.912Z,98957.50
2022-08-26T13:23:42.994Z,98945.22
2022-08-26T13:25:45.319Z,98945.28
2022-08-26T13:27:47.437Z,98939.06
2022-08-26T13:29:51.109Z,98948.44
2022-08-26T13:31:53.390Z,98938.38
2022-08-26T13:33:56.835Z,98935.44
2022-08-26T13:36:00.011Z,98927.00
2022-08-26T13:38:02.174Z,98927.91
2022-08-26T13:40:07.175Z,98923.00
2022-08-26T13:42:09.568Z,98926.91
2022-08-26T13:44:11.705Z,98930.00
2022-08-26T13:46:14.147Z,98928.97
2022-08-26T13:48:21.572Z,98926.75
2022-08-26T13:50:25.206Z,98933.22
2022-08-26T13:52:30.736Z,98923.69
2022-08-26T13:54:33.569Z,98920.59
2022-08-26T13:56:36.296Z,98918.44
2022-08-26T13:58:38.257Z,98917.13
2022-08-26T14:00:41.528Z,98921.81
2022-08-26T14:02:43.637Z,98930.59
2022-08-26T14:04:46.137Z,98930.22
2022-08-26T14:06:50.846Z,98922.22
2022-08-26T14:08:53.310Z,98916.66
2022-08-26T14:10:55.337Z,98923.00
2022-08-26T14:12:57.488Z,98919.91
2022-08-26T14:15:00.555Z,98922.63
2022-08-26T14:17:02.829Z,98921.69
2022-08-26T14:19:06.988Z,98927.75
2022-08-26T14:21:12.690Z,98924.09
2022-08-26T14:23:15.496Z,98923.38
2022-08-26T14:25:18.604Z,98921.22
2022-08-26T14:27:20.745Z,98923.63
2022-08-26T14:29:22.985Z,98924.03
2022-08-26T14:31:27.100Z,98919.69
2022-08-26T14:33:32.829Z,98923.72
2022-08-26T14:35:35.192Z,98908.47
2022-08-26T14:37:37.450Z,98915.66
2022-08-26T14:39:39.730Z,98927.66
2022-08-26T14:41:54.049Z,98927.06
2022-08-26T14:44:04.333Z,98918.06
2022-08-26T14:46:06.964Z,98924.28
2022-08-26T14:48:09.891Z,98923.31
2022-08-26T14:50:18.296Z,98929.75
2022-08-26T14:52:20.626Z,98925.50
2022-08-26T14:54:22.823Z,98922.69
2022-08-26T14:56:25.138Z,98919.06
2022-08-26T14:58:28.604Z,98918.66
2022-08-26T15:00:38.390Z,98918.66
2022-08-26T15:02:41.478Z,98913.53
2022-08-26T15:04:43.691Z,98916.09
2022-08-26T15:06:46.479Z,98915.47
2022-08-26T15:08:48.875Z,98917.59
2022-08-26T15:10:51.066Z,98916.75
2022-08-26T15:12:53.148Z,98912.84
2022-08-26T15:14:57.902Z,98915.63
2022-08-26T15:17:00.549Z,98916.66
2022-08-26T15:19:06.839Z,98914.94
2022-08-26T15:21:09.209Z,98915.00
2022-08-26T15:23:12.391Z,98910.06
2022-08-26T15:25:15.460Z,98913.94
2022-08-26T15:27:18.562Z,98919.97
2022-08-26T15:29:22.515Z,98919.81
2022-08-26T15:31:31.497Z,98915.09
2022-08-26T15:33:35.507Z,98916.41
2022-08-26T15:35:38.460Z,98912.75
2022-08-26T15:37:42.672Z,98915.78
2022-08-26T15:39:44.722Z,98913.91
2022-08-26T15:41:47.574Z,98919.31
2022-08-26T15:43:49.900Z,98911.84
2022-08-26T15:45:52.134Z,98911.47
2022-08-26T15:48:00.756Z,98914.69
2022-08-26T15:50:04.231Z,98908.50
2022-08-26T15:52:09.448Z,98913.03
2022-08-26T15:54:11.753Z,98921.84
2022-08-26T15:56:14.252Z,98919.69
2022-08-26T15:58:17.183Z,98920.16
2022-08-26T16:00:22.669Z,98921.94
2022-08-26T16:02:31.786Z,98921.31
2022-08-26T16:04:35.252Z,98917.50
2022-08-26T16:06:40.398Z,98912.34
2022-08-26T16:08:43.125Z,98921.41
2022-08-26T16:10:50.693Z,98920.09
2022-08-26T16:12:53.968Z,98912.88
2022-08-26T16:14:56.137Z,98918.84
2022-08-26T16:16:58.340Z,98923.56
2022-08-26T16:19:03.273Z,98915.44
2022-08-26T16:21:13.124Z,98918.88
2022-08-26T16:23:16.490Z,98909.03
2022-08-26T16:25:18.760Z,98916.97
2022-08-26T16:27:21.027Z,98920.59
2022-08-26T16:29:25.324Z,98912.72
2022-08-26T16:31:27.892Z,98921.06
2022-08-26T16:33:30.150Z,98920.00
2022-08-26T16:35:32.205Z,98909.28
2022-08-26T16:37:36.524Z,98918.94
2022-08-26T16:39:45.182Z,98918.94
2022-08-26T16:41:48.063Z,98917.72
2022-08-26T16:43:53.418Z,98918.34
2022-08-26T16:45:56.230Z,98917.88
2022-08-26T16:47:59.420Z,98915.09
2022-08-26T16:50:02.365Z,98911.47
2022-08-26T16:52:04.809Z,98905.00
2022-08-26T16:54:08.901Z,98901.19
2022-08-26T16:56:16.249Z,98895.25
2022-08-26T16:58:22.161Z,98906.84
2022-08-26T17:00:30.403Z,98900.84
2022-08-26T17:02:32.511Z,98912.91
2022-08-26T17:04:34.641Z,98914.19
2022-08-26T17:06:37.514Z,98906.28
2022-08-26T17:08:41.716Z,98914.22
2022-08-26T17:10:44.187Z,98894.97
2022-08-26T17:12:47.193Z,98904.81
2022-08-26T17:14:49.977Z,98895.44
2022-08-26T17:16:53.593Z,98907.22
2022-08-26T17:18:57.687Z,98901.91
2022-08-26T17:21:08.917Z,98910.97
2022-08-26T17:23:11.131Z,98907.56
2022-08-26T17:25:25.512Z,98916.78
2022-08-26T17:27:28.230Z,98909.31
2022-08-26T17:29:30.566Z,98909.06
2022-08-26T17:31:33.730Z,98913.78
2022-08-26T17:33:36.130Z,98906.78
2022-08-26T17:35:40.346Z,98908.72
2022-08-26T17:37:42.898Z,98906.56
2022-08-26T17:39:44.857Z,98900.81
2022-08-26T17:41:47.055Z,98906.16
2022-08-26T17:43:49.114Z,98905.13
2022-08-26T17:46:06.991Z,98900.84
2022-08-26T17:48:11.409Z,98895.28
2022-08-26T17:50:17.476Z,98903.84
2022-08-26T17:52:19.596Z,98900.84
2022-08-26T17:54:21.798Z,98901.69
2022-08-26T17:56:28.047Z,98900.41
2022-08-26T17:58:30.370Z,98908.88
2022-08-26T18:00:32.708Z,98899.66
2022-08-26T18:02:38.323Z,98901.78
2022-08-26T18:04:40.606Z,98910.50
2022-08-26T18:06:43.526Z,98913.63
2022-08-26T18:08:48.709Z,98914.91
2022-08-26T18:10:51.496Z,98920.44
2022-08-26T18:12:54.133Z,98919.53
2022-08-26T18:14:59.155Z,98911.81
2022-08-26T18:17:01.616Z,98915.44
2022-08-26T18:19:06.470Z,98913.97
2022-08-26T18:21:14.053Z,98918.66
2022-08-26T18:23:16.210Z,98919.97
2022-08-26T18:25:19.103Z,98917.38
2022-08-26T18:27:21.501Z,98918.47
2022-08-26T18:29:25.542Z,98920.78
2022-08-26T18:31:29.147Z,98925.69
2022-08-26T18:33:31.571Z,98924.38
2022-08-26T18:35:39.483Z,98928.00
2022-08-26T18:37:42.955Z,98923.72
2022-08-26T18:39:45.233Z,98930.91
2022-08-26T18:41:50.790Z,98933.41
2022-08-26T18:43:54.149Z,98932.97
2022-08-26T18:46:08.390Z,98928.63
2022-08-26T18:48:10.609Z,98924.34
2022-08-26T18:50:13.319Z,98926.88
2022-08-26T18:52:15.987Z,98922.16
2022-08-26T18:56:23.339Z,98923.56
2022-08-26T18:58:25.721Z,98918.63
2022-08-26T19:00:27.872Z,98923.06
2022-08-26T19:02:30.654Z,98923.47
2022-08-26T19:04:33.079Z,98924.72
2022-08-26T19:06:36.442Z,98929.75
2022-08-26T19:08:44.577Z,98925.88
2022-08-26T19:10:47.065Z,98930.13
2022-08-26T19:12:52.065Z,98926.44
2022-08-26T19:14:54.315Z,98935.31
2022-08-26T19:16:56.494Z,98936.97
2022-08-26T19:19:01.093Z,98936.91
2022-08-26T19:21:03.770Z,98940.47
2022-08-26T19:23:28.292Z,98938.47
2022-08-26T19:25:28.651Z,98932.03
2022-08-26T19:27:31.381Z,98932.97
2022-08-26T19:29:36.549Z,98920.75
2022-08-26T19:31:38.936Z,98924.16
2022-08-26T19:33:43.409Z,98910.03
2022-08-26T19:35:45.899Z,98908.88
2022-08-26T19:37:49.846Z,98909.50
2022-08-26T19:39:51.983Z,98917.88
2022-08-26T19:41:54.537Z,98912.47
2022-08-26T19:43:59.018Z,98917.94
2022-08-26T19:46:02.801Z,98914.88
2022-08-26T19:48:05.119Z,98913.06
2022-08-26T19:50:09.937Z,98916.19
2022-08-26T19:52:12.469Z,98925.06
2022-08-26T19:54:14.694Z,98926.59
2022-08-26T19:56:17.813Z,98932.22
2022-08-26T19:58:20.376Z,98932.78
2022-08-26T20:00:25.979Z,98931.09
2022-08-26T20:02:29.417Z,98926.59
2022-08-26T20:04:32.565Z,98918.69
2022-08-26T20:06:34.552Z,98919.91
2022-08-26T20:08:39.387Z,98919.25
2022-08-26T20:10:41.527Z,98922.22
2022-08-26T20:12:45.681Z,98916.00
2022-08-26T20:14:47.660Z,98923.34
2022-08-26T20:16:49.925Z,98922.88
2022-08-26T20:19:10.644Z,98926.47
2022-08-26T20:21:28.160Z,98929.44
2022-08-26T20:23:30.166Z,98928.09
2022-08-26T20:25:33.579Z,98927.53
2022-08-26T20:27:38.391Z,98925.66
2022-08-26T20:29:40.770Z,98927.34
2022-08-26T20:31:44.350Z,98926.97
2022-08-26T20:33:47.367Z,98926.31
2022-08-26T20:35:49.951Z,98937.09
2022-08-26T20:37:52.449Z,98927.47
2022-08-26T20:39:55.548Z,98933.91
2022-08-26T20:41:58.329Z,98936.47
2022-08-26T20:44:00.638Z,98935.94
2022-08-26T20:46:03.106Z,98936.06
2022-08-26T20:48:11.106Z,98931.03
2022-08-26T20:50:13.128Z,98929.31
2022-08-26T20:52:15.327Z,98944.03
2022-08-26T20:54:17.960Z,98940.75
2022-08-26T20:56:24.427Z,98942.31
2022-08-26T20:58:28.346Z,98936.97
2022-08-26T21:00:30.449Z,98936.31
2022-08-26T21:02:32.500Z,98937.53
2022-08-26T21:04:35.129Z,98936.16
2022-08-26T21:06:38.457Z,98944.44
2022-08-26T21:08:43.306Z,98949.69
2022-08-26T21:10:47.064Z,98946.94
2022-08-26T21:12:49.634Z,98947.78
2022-08-26T21:14:51.624Z,98951.06
2022-08-26T21:16:53.894Z,98947.44
2022-08-26T21:18:56.150Z,98949.16
2022-08-26T21:20:58.299Z,98951.44
2022-08-26T21:23:00.439Z,98960.28
2022-08-26T21:25:02.673Z,98955.78
2022-08-26T21:27:04.940Z,98951.22
2022-08-26T21:29:10.011Z,98971.38
2022-08-26T21:31:16.789Z,98953.31
2022-08-26T21:33:18.968Z,98958.50
2022-08-26T21:35:21.399Z,98955.03
2022-08-26T21:37:24.311Z,98952.44
2022-08-26T21:39:26.515Z,98953.28
2022-08-26T21:41:31.273Z,98955.66
2022-08-26T21:43:35.305Z,98958.63
2022-08-26T21:45:41.513Z,98964.00
2022-08-26T21:47:44.245Z,98969.16
2022-08-26T21:49:46.297Z,98970.53
2022-08-26T21:51:49.321Z,98974.88
2022-08-26T21:53:53.009Z,98976.81
2022-08-26T21:55:55.207Z,98975.59
2022-08-26T21:57:57.262Z,98980.09
2022-08-26T21:59:59.801Z,98983.19
2022-08-26T22:02:02.146Z,98981.28
2022-08-26T22:04:07.325Z,98975.25
2022-08-26T22:06:09.346Z,98977.47
2022-08-26T22:08:12.422Z,98979.19
2022-08-26T22:10:14.489Z,98986.06
2022-08-26T22:12:18.291Z,98985.03
2022-08-26T22:14:30.468Z,98977.50
2022-08-26T22:16:33.389Z,98980.25
2022-08-26T22:18:37.137Z,98981.41
2022-08-26T22:20:39.270Z,98973.03
2022-08-26T22:22:41.265Z,98977.66
2022-08-26T22:24:44.888Z,98985.22
2022-08-26T22:26:47.758Z,98980.06
2022-08-26T22:28:50.208Z,98976.13
2022-08-26T22:30:58.043Z,98982.84
2022-08-26T22:33:00.241Z,98976.78
2022-08-26T22:35:02.568Z,98974.75
2022-08-26T22:37:24.577Z,98963.38
2022-08-26T22:39:26.976Z,98969.19
2022-08-26T22:41:29.112Z,98967.66
2022-08-26T22:43:36.483Z,98960.06
2022-08-26T22:45:43.192Z,98959.91
2022-08-26T22:47:45.197Z,98963.69
2022-08-26T22:49:47.129Z,98966.75
2022-08-26T22:51:49.707Z,98969.28
2022-08-26T22:53:51.669Z,98966.16
2022-08-26T22:55:54.511Z,98964.97
2022-08-26T22:57:56.631Z,98968.41
2022-08-26T22:59:58.867Z,98963.59
2022-08-26T23:02:02.057Z,98958.41
2022-08-26T23:04:06.397Z,98959.81
2022-08-26T23:06:10.930Z,98958.81
2022-08-26T23:08:14.453Z,98960.19
2022-08-26T23:10:16.837Z,98960.75
2022-08-26T23:12:19.075Z,98955.91
2022-08-26T23:14:21.366Z,98951.09
2022-08-26T23:16:23.561Z,98950.59
2022-08-26T23:18:25.632Z,98952.13
2022-08-26T23:20:28.822Z,98941.63
2022-08-26T23:22:31.572Z,98945.91
2022-08-26T23:24:36.583Z,98953.97
2022-08-26T23:26:41.101Z,98940.00
2022-08-26T23:28:43.212Z,98950.47
2022-08-26T23:30:45.302Z,98946.69
2022-08-26T23:32:47.785Z,98948.34
2022-08-26T23:34:58.541Z,98952.81
2022-08-26T23:37:01.129Z,98947.97
2022-08-26T23:39:06.324Z,98953.69
2022-08-26T23:41:08.826Z,98945.22
2022-08-26T23:43:16.499Z,98945.59
2022-08-26T23:45:19.954Z,98946.63
2022-08-26T23:47:21.991Z,98954.38
2022-08-26T23:49:25.081Z,98946.78
2022-08-26T23:51:45.961Z,98943.19
2022-08-26T23:53:49.646Z,98951.25
2022-08-26T23:55:52.903Z,98941.63
2022-08-26T23:57:57.932Z,98946.78
